Time;durP1;ratioP1;P1;durP2;ratioP2;P2;SDS_P1;SDS_P2;PMS_P1;PMS_P2;Temp;Humidity;BMP_temperature;BMP_pressure;BME280_temperature;BME280_humidity;BME280_pressure;Samples;Min_cycle;Max_cycle;Signal;HPM_P1;HPM_P2
2023/11/24 00:01:06;;;;;;;20.00;11.40;;;;;;;1.60;100.00;96607.70;110173;1241;68338;-66
2023/11/24 00:03:39;;;;;;;15.30;9.90;;;;;;;1.60;100.00;96609.27;110205;1243;59700;-67
2023/11/24 00:06:09;;;;;;;16.50;10.30;;;;;;;1.60;100.00;96600.67;110214;1243;59671;-66
2023/11/24 00:08:39;;;;;;;14.60;9.40;;;;;;;1.62;100.00;96592.65;110205;1243;71383;-66
2023/11/24 00:11:09;;;;;;;13.70;8.60;;;;;;;1.64;100.00;96592.56;110215;1241;68390;-68
2023/11/24 00:13:41;;;;;;;15.70;8.60;;;;;;;1.66;100.00;96583.19;110149;1243;69321;-66
2023/11/24 00:16:11;;;;;;;14.30;8.60;;;;;;;1.69;100.00;96581.15;110179;1244;59683;-68
2023/11/24 00:18:41;;;;;;;12.90;8.60;;;;;;;1.70;100.00;96576.42;110193;1242;59697;-69
2023/11/24 00:21:11;;;;;;;14.50;8.30;;;;;;;1.71;100.00;96560.58;110153;1244;69582;-66
2023/11/24 00:23:41;;;;;;;15.00;9.60;;;;;;;1.72;100.00;96556.77;110227;1243;68586;-68
2023/11/24 00:26:11;;;;;;;13.90;9.00;;;;;;;1.72;100.00;96554.21;110135;1244;70232;-67
2023/11/24 00:28:54;;;;;;;14.90;9.80;;;;;;;1.72;100.00;96555.41;110138;1244;59698;-66
2023/11/24 00:31:26;;;;;;;16.80;10.00;;;;;;;1.73;100.00;96563.61;110162;1244;59698;-66
2023/11/24 00:33:56;;;;;;;;;;;;;;;1.70;100.00;96559.95;110129;1244;71278;-66
2023/11/24 00:36:28;;;;;;;14.40;8.80;;;;;;;1.69;100.00;96558.48;110214;1244;69143;-67
2023/11/24 00:38:59;;;;;;;13.40;9.20;;;;;;;1.68;100.00;96565.92;110207;1244;69301;-66
2023/11/24 00:41:30;;;;;;;14.30;8.60;;;;;;;1.69;100.00;96557.77;110149;1243;59739;-66
2023/11/24 00:44:03;;;;;;;14.20;8.70;;;;;;;1.64;100.00;96554.75;110175;1244;59697;-66
2023/11/24 00:46:33;;;;;;;14.50;9.30;;;;;;;1.66;100.00;96550.70;110148;1244;70473;-66
2023/11/24 00:49:05;;;;;;;12.50;8.20;;;;;;;1.67;100.00;96544.00;110162;1243;69158;-66
2023/11/24 00:51:36;;;;;;;15.00;8.30;;;;;;;1.66;100.00;96533.73;110154;1241;69250;-65
2023/11/24 00:54:09;;;;;;;12.70;8.60;;;;;;;1.64;100.00;96528.30;110142;1241;59698;-65
2023/11/24 00:56:40;;;;;;;12.90;8.10;;;;;;;1.65;100.00;96527.55;110229;1241;59661;-66
2023/11/24 00:59:13;;;;;;;12.90;8.90;;;;;;;1.65;100.00;96527.39;110172;1244;71337;-65
2023/11/24 01:01:45;;;;;;;13.20;7.60;;;;;;;1.67;100.00;96515.32;110172;1242;68663;-67
2023/11/24 01:04:16;;;;;;;15.50;8.40;;;;;;;1.66;100.00;96502.11;110129;1242;68319;-65
2023/11/24 01:06:48;;;;;;;12.50;8.20;;;;;;;1.65;100.00;96502.16;110258;1242;60099;-65
2023/11/24 01:09:20;;;;;;;14.20;8.70;;;;;;;1.62;100.00;96492.52;110288;1242;59647;-65
2023/11/24 01:11:53;;;;;;;12.60;7.20;;;;;;;1.61;100.00;96489.85;110241;1242;71408;-65
2023/11/24 01:14:26;;;;;;;15.00;8.40;;;;;;;1.60;100.00;96484.91;110208;1242;69331;-65
2023/11/24 01:17:02;;;;;;;14.00;8.50;;;;;;;1.58;100.00;96481.75;110246;1242;69313;-65
2023/11/24 01:19:37;;;;;;;14.70;9.10;;;;;;;1.58;100.00;96477.64;110208;1242;59747;-66
2023/11/24 01:22:09;;;;;;;14.30;8.60;;;;;;;1.55;100.00;96466.77;110227;1241;59722;-66
2023/11/24 01:24:44;;;;;;;12.90;7.70;;;;;;;1.49;100.00;96458.36;110241;1241;71620;-66
2023/11/24 01:27:26;;;;;;;14.10;8.80;;;;;;;1.42;100.00;96455.92;110183;1241;68519;-66
2023/11/24 01:30:00;;;;;;;16.20;8.70;;;;;;;1.34;100.00;96447.64;110243;1243;69103;-65
2023/11/24 01:32:35;;;;;;;12.00;7.60;;;;;;;1.24;100.00;96440.73;110110;1244;59684;-67
2023/11/24 01:35:12;;;;;;;14.40;8.50;;;;;;;1.15;100.00;96428.51;110256;1242;59678;-65
2023/11/24 01:37:46;;;;;;;11.70;7.50;;;;;;;1.06;100.00;96428.11;110303;1242;69511;-65
2023/11/24 01:40:20;;;;;;;14.10;8.20;;;;;;;0.96;100.00;96423.45;110230;1241;68738;-66
2023/11/24 01:42:51;;;;;;;14.40;8.10;;;;;;;0.86;100.00;96422.39;110208;1241;68619;-65
2023/11/24 01:45:21;;;;;;;12.30;7.90;;;;;;;0.77;100.00;96414.27;110233;1242;59728;-66
2023/11/24 01:47:53;;;;;;;14.90;9.30;;;;;;;0.68;100.00;96405.80;110241;1242;59735;-65
2023/11/24 01:50:25;;;;;;;21.90;9.20;;;;;;;0.59;100.00;96399.73;110186;1240;70543;-66
2023/11/24 01:52:57;;;;;;;13.30;8.00;;;;;;;0.51;100.00;96396.54;110140;1245;69064;-66
2023/11/24 01:55:28;;;;;;;14.20;8.30;;;;;;;0.44;100.00;96384.67;110196;1241;69265;-65
2023/11/24 01:58:03;;;;;;;15.90;9.30;;;;;;;0.39;100.00;96386.33;110118;1240;59695;-65
2023/11/24 02:00:38;;;;;;;12.70;7.20;;;;;;;0.32;100.00;96376.55;110221;1242;59640;-66
2023/11/24 02:03:10;;;;;;;13.80;7.70;;;;;;;0.26;100.00;96370.29;110268;1248;70702;-65
2023/11/24 02:05:44;;;;;;;12.40;7.20;;;;;;;0.22;100.00;96362.29;110139;1244;68516;-66
2023/11/24 02:08:17;;;;;;;12.60;7.50;;;;;;;0.18;100.00;96359.05;110216;1242;69287;-65
2023/11/24 02:10:50;;;;;;;12.50;6.20;;;;;;;0.14;100.00;96352.39;110245;1242;59750;-65
2023/11/24 02:13:27;;;;;;;12.70;6.80;;;;;;;0.09;100.00;96343.55;110249;1242;59614;-66
2023/11/24 02:16:00;;;;;;;10.10;6.30;;;;;;;0.04;100.00;96334.55;110247;1241;71685;-65
2023/11/24 02:18:32;;;;;;;14.20;7.30;;;;;;;-0.03;100.00;96327.31;110131;1244;69734;-65
2023/11/24 02:21:08;;;;;;;10.70;6.30;;;;;;;-0.09;100.00;96320.41;110190;1241;68525;-65
2023/11/24 02:23:42;;;;;;;11.40;6.50;;;;;;;-0.13;100.00;96319.25;110117;1242;59656;-65
2023/11/24 02:26:14;;;;;;;10.20;6.20;;;;;;;-0.17;100.00;96324.59;110232;1242;59633;-65
2023/11/24 02:28:50;;;;;;;10.80;6.00;;;;;;;-0.23;100.00;96321.95;110171;1244;70559;-66
2023/11/24 02:31:21;;;;;;;12.10;6.40;;;;;;;-0.30;100.00;96308.73;110139;1244;68509;-66
2023/11/24 02:33:58;;;;;;;11.60;6.50;;;;;;;-0.35;100.00;96301.13;110206;1242;68300;-66
2023/11/24 02:36:36;;;;;;;10.60;5.60;;;;;;;-0.38;100.00;96297.52;110232;1242;59653;-66
2023/11/24 02:39:09;;;;;;;15.60;8.60;;;;;;;-0.42;100.00;96293.09;110225;1242;59606;-66
2023/11/24 02:41:42;;;;;;;14.90;8.40;;;;;;;-0.51;100.00;96286.10;110213;1242;70696;-66
2023/11/24 02:44:20;;;;;;;14.50;8.30;;;;;;;-0.60;100.00;96282.91;110146;1245;69118;-66
2023/11/24 02:46:50;;;;;;;15.80;8.60;;;;;;;-0.66;100.00;96285.80;110193;1242;68619;-66
2023/11/24 02:49:24;;;;;;;15.80;8.80;;;;;;;-0.68;100.00;96278.85;110166;1244;59660;-66
2023/11/24 02:51:58;;;;;;;16.60;8.20;;;;;;;-0.67;100.00;96278.14;110205;1241;59754;-66
2023/11/24 02:54:31;;;;;;;14.40;8.80;;;;;;;-0.64;100.00;96275.06;110244;1241;71371;-66
2023/11/24 02:57:07;;;;;;;15.00;8.00;;;;;;;-0.59;100.00;96272.42;110228;1240;69259;-66
2023/11/24 02:59:37;;;;;;;17.00;9.10;;;;;;;-0.55;100.00;96264.53;110189;1240;69183;-66
2023/11/24 03:02:08;;;;;;;15.90;7.10;;;;;;;-0.49;100.00;96256.05;110202;1242;59751;-66
2023/11/24 03:04:40;;;;;;;12.50;7.30;;;;;;;-0.44;100.00;96260.48;110216;1247;59699;-66
2023/11/24 03:07:13;;;;;;;13.60;7.60;;;;;;;-0.40;100.00;96265.92;110283;1242;71285;-66
2023/11/24 03:09:44;;;;;;;14.50;8.70;;;;;;;-0.37;100.00;96244.19;110170;1240;68921;-65
2023/11/24 03:12:16;;;;;;;;;;;;;;;-0.34;100.00;96239.92;110223;1243;69513;-65
2023/11/24 03:14:53;;;;;;;13.40;7.60;;;;;;;-0.28;100.00;96248.92;110255;1241;59753;-65
2023/11/24 03:17:25;;;;;;;10.50;6.40;;;;;;;-0.24;100.00;96236.04;110170;1241;59740;-66
2023/11/24 03:19:56;;;;;;;13.60;7.70;;;;;;;-0.21;100.00;96222.71;110217;1247;71354;-65
2023/11/24 03:22:29;;;;;;;13.00;6.80;;;;;;;-0.18;100.00;96231.14;110207;1242;69322;-67
2023/11/24 03:25:11;;;;;;;12.00;7.50;;;;;;;-0.13;100.00;96216.33;110217;1242;69175;-67
2023/11/24 03:27:43;;;;;;;12.70;7.80;;;;;;;-0.09;100.00;96224.35;110225;1241;59721;-67
2023/11/24 03:30:17;;;;;;;14.70;8.60;;;;;;;-0.05;100.00;96217.30;110277;1241;59747;-65
2023/11/24 03:32:49;;;;;;;20.20;9.90;;;;;;;-0.01;100.00;96186.27;110270;1240;71680;-67
2023/11/24 03:35:19;;;;;;;11.80;7.90;;;;;;;0.04;100.00;96212.95;110231;1241;68380;-65
2023/11/24 03:37:50;;;;;;;14.80;8.90;;;;;;;0.09;100.00;96195.02;110199;1241;68256;-65
2023/11/24 03:40:20;;;;;;;13.50;8.10;;;;;;;0.14;100.00;96188.60;110056;1244;60138;-66
2023/11/24 03:42:55;;;;;;;13.90;8.10;;;;;;;0.18;100.00;96164.20;110219;1242;59675;-66
2023/11/24 03:45:30;;;;;;;12.40;7.20;;;;;;;0.26;100.00;96172.73;110217;1242;71396;-66
2023/11/24 03:48:02;;;;;;;14.80;8.30;;;;;;;0.34;100.00;96154.33;110261;1242;69053;-66
2023/11/24 03:50:33;;;;;;;14.80;8.80;;;;;;;0.40;100.00;96148.48;110175;1242;69202;-66
2023/11/24 03:53:04;;;;;;;15.50;8.70;;;;;;;0.46;100.00;96138.08;110217;1241;59762;-66
2023/11/24 03:55:38;;;;;;;13.30;8.50;;;;;;;0.53;100.00;96151.27;110216;1242;59694;-66
2023/11/24 03:58:10;;;;;;;11.40;6.60;;;;;;;0.58;100.00;96152.03;110219;1242;71399;-66
2023/11/24 04:00:42;;;;;;;12.70;6.80;;;;;;;0.64;100.00;96152.91;110223;1242;68600;-66
2023/11/24 04:03:18;;;;;;;12.80;7.30;;;;;;;0.69;100.00;96162.09;110217;1240;69305;-66
2023/11/24 04:05:50;;;;;;;14.10;7.70;;;;;;;0.72;100.00;96153.84;110235;1242;59640;-66
2023/11/24 04:08:23;;;;;;;11.10;6.50;;;;;;;0.76;100.00;96139.56;110169;1244;59624;-66
2023/11/24 04:10:54;;;;;;;10.90;6.70;;;;;;;0.81;100.00;96139.30;110097;1240;71302;-66
2023/11/24 04:13:27;;;;;;;11.00;6.50;;;;;;;0.87;100.00;96119.77;110216;1247;69056;-66
2023/11/24 04:15:58;;;;;;;8.90;5.50;;;;;;;0.92;100.00;96114.19;110210;1240;68767;-66
2023/11/24 04:18:29;;;;;;;12.60;7.60;;;;;;;0.97;100.00;96110.81;110261;1241;59706;-66
2023/11/24 04:21:00;;;;;;;12.00;8.30;;;;;;;0.99;100.00;96099.67;110179;1240;59680;-66
2023/11/24 04:23:33;;;;;;;12.50;7.20;;;;;;;1.02;100.00;96103.84;110223;1240;71400;-66
2023/11/24 04:26:08;;;;;;;11.40;6.50;;;;;;;1.06;100.00;96107.74;110204;1242;69238;-66
2023/11/24 04:28:38;;;;;;;10.10;6.70;;;;;;;1.08;100.00;96097.20;110194;1242;68321;-66
2023/11/24 04:31:09;;;;;;;11.60;7.30;;;;;;;1.10;100.00;96100.11;110235;1240;59679;-66
2023/11/24 04:33:41;;;;;;;11.10;7.30;;;;;;;1.13;100.00;96092.43;110211;1242;59660;-66
2023/11/24 04:36:13;;;;;;;12.40;7.10;;;;;;;1.13;100.00;96081.59;110218;1242;70838;-66
2023/11/24 04:38:42;;;;;;;11.50;7.20;;;;;;;1.15;100.00;96080.16;110211;1241;69129;-66
2023/11/24 04:41:13;;;;;;;14.60;8.00;;;;;;;1.16;100.00;96080.06;110196;1242;69093;-66
2023/11/24 04:43:44;;;;;;;10.70;6.60;;;;;;;1.17;100.00;96078.66;110185;1242;59701;-66
2023/11/24 04:46:14;;;;;;;11.50;6.50;;;;;;;1.17;100.00;96085.98;110136;1241;59742;-66
2023/11/24 04:48:44;;;;;;;;;;;;;;;1.19;100.00;96083.16;110216;1241;71295;-66
2023/11/24 04:51:15;;;;;;;11.90;7.10;;;;;;;1.18;100.00;96083.02;110220;1242;69288;-66
2023/11/24 04:53:45;;;;;;;12.70;7.30;;;;;;;1.19;100.00;96083.31;110276;1240;69272;-66
2023/11/24 04:56:16;;;;;;;12.60;7.80;;;;;;;1.20;100.00;96074.16;110257;1241;59695;-66
2023/11/24 04:58:46;;;;;;;10.00;6.50;;;;;;;1.21;100.00;96066.60;110216;1241;59689;-66
2023/11/24 05:01:18;;;;;;;14.30;8.50;;;;;;;1.21;100.00;96054.70;110237;1242;71829;-66
2023/11/24 05:03:49;;;;;;;10.90;7.50;;;;;;;1.22;100.00;96045.95;110229;1241;68369;-66
2023/11/24 05:06:20;;;;;;;20.50;12.00;;;;;;;1.22;100.00;96039.39;110257;1242;69105;-66
2023/11/24 05:08:52;;;;;;;21.80;14.30;;;;;;;1.22;100.00;96031.29;110236;1240;59677;-66
2023/11/24 05:11:23;;;;;;;23.40;15.20;;;;;;;1.23;100.00;96034.01;110253;1242;59686;-66
2023/11/24 05:13:54;;;;;;;20.20;13.50;;;;;;;1.23;100.00;96026.80;110241;1242;70860;-66
2023/11/24 05:16:25;;;;;;;22.60;13.50;;;;;;;1.24;100.00;96031.19;110231;1240;69235;-66
2023/11/24 05:18:55;;;;;;;17.50;11.60;;;;;;;1.25;100.00;96019.65;110200;1240;68527;-66
2023/11/24 05:21:25;;;;;;;19.90;13.10;;;;;;;1.26;100.00;96011.70;110225;1242;59744;-66
2023/11/24 05:23:54;;;;;;;17.20;11.00;;;;;;;1.28;100.00;96003.70;110197;1242;59643;-67
2023/11/24 05:26:24;;;;;;;17.80;11.10;;;;;;;1.29;100.00;96001.07;110260;1242;69943;-66
2023/11/24 05:28:54;;;;;;;18.00;8.50;;;;;;;1.30;100.00;95998.41;110205;1242;69208;-66
2023/11/24 05:31:25;;;;;;;14.80;9.40;;;;;;;1.31;100.00;95995.11;110262;1242;69303;-66
2023/11/24 05:33:55;;;;;;;11.10;7.60;;;;;;;1.32;100.00;95995.02;110242;1242;60134;-66
2023/11/24 05:36:27;;;;;;;10.00;6.60;;;;;;;1.33;100.00;95983.84;110276;1242;59703;-66
2023/11/24 05:38:57;;;;;;;12.00;7.50;;;;;;;1.35;100.00;95983.36;110221;1241;71480;-66
2023/11/24 05:41:28;;;;;;;12.40;7.10;;;;;;;1.38;100.00;95978.74;110293;1242;69026;-66
2023/11/24 05:43:58;;;;;;;14.00;7.70;;;;;;;1.40;100.00;95968.89;110255;1242;69358;-66
2023/11/24 05:46:28;;;;;;;12.00;7.30;;;;;;;1.41;100.00;95972.18;110260;1242;59755;-66
2023/11/24 05:48:57;;;;;;;;;;;;;;;1.42;100.00;95967.52;110266;1240;59705;-66
2023/11/24 05:51:28;;;;;;;10.60;7.20;;;;;;;1.43;100.00;95966.39;110279;1241;71355;-67
2023/11/24 05:53:58;;;;;;;11.30;6.70;;;;;;;1.46;100.00;95961.09;110248;1241;69265;-68
2023/11/24 05:56:27;;;;;;;9.80;6.90;;;;;;;1.47;100.00;95955.68;110252;1242;69277;-67
2023/11/24 05:58:56;;;;;;;11.80;8.00;;;;;;;1.50;100.00;95955.01;110277;1240;59683;-66
2023/11/24 06:01:27;;;;;;;10.00;6.50;;;;;;;1.52;100.00;95953.84;110268;1240;59698;-67
2023/11/24 06:03:56;;;;;;;9.60;5.90;;;;;;;1.55;100.00;95960.02;110345;1241;71385;-67
2023/11/24 06:06:27;;;;;;;10.20;6.60;;;;;;;1.58;100.00;95967.24;110287;1241;69084;-67
2023/11/24 06:08:56;;;;;;;9.30;6.20;;;;;;;1.61;100.00;95967.91;110111;1244;69865;-67
2023/11/24 06:11:26;;;;;;;10.50;6.60;;;;;;;1.65;100.00;95970.63;110269;1242;59707;-66
2023/11/24 06:13:56;;;;;;;9.20;5.40;;;;;;;1.68;100.00;95974.55;110245;1242;59709;-66
2023/11/24 06:16:26;;;;;;;10.10;6.40;;;;;;;1.71;100.00;95980.70;110225;1241;71276;-67
2023/11/24 06:18:55;;;;;;;9.70;6.50;;;;;;;1.76;100.00;95979.73;110226;1242;68369;-67
2023/11/24 06:21:27;;;;;;;9.90;6.00;;;;;;;1.78;100.00;95967.02;110113;1241;69919;-67
2023/11/24 06:23:57;;;;;;;7.90;5.60;;;;;;;1.80;100.00;95970.36;110236;1241;59709;-67
2023/11/24 06:26:30;;;;;;;7.80;4.40;;;;;;;1.82;100.00;95967.48;110245;1241;59718;-67
2023/11/24 06:29:01;;;;;;;8.70;5.60;;;;;;;1.85;100.00;95976.59;110211;1242;69950;-67
2023/11/24 06:31:31;;;;;;;8.00;4.60;;;;;;;1.89;100.00;95975.13;110202;1242;68317;-67
2023/11/24 06:34:01;;;;;;;;;;;;;;;1.93;100.00;95965.95;110186;1242;68724;-67
2023/11/24 06:36:31;;;;;;;9.90;6.30;;;;;;;1.95;100.00;95961.02;110230;1242;60166;-67
2023/11/24 06:39:09;;;;;;;10.50;6.60;;;;;;;1.98;100.00;95952.08;110217;1242;59692;-67
2023/11/24 06:41:41;;;;;;;12.20;7.80;;;;;;;2.00;100.00;95949.87;110239;1241;71933;-66
2023/11/24 06:44:15;;;;;;;13.60;8.20;;;;;;;1.98;100.00;95952.42;110232;1242;69787;-67
2023/11/24 06:46:46;;;;;;;12.30;8.20;;;;;;;1.96;100.00;95952.38;110183;1242;69286;-67
2023/11/24 06:49:17;;;;;;;13.40;9.00;;;;;;;2.00;100.00;95957.95;110235;1242;59737;-67
2023/11/24 06:51:48;;;;;;;16.20;10.30;;;;;;;2.03;100.00;95953.34;110252;1241;59675;-66
2023/11/24 06:54:21;;;;;;;16.10;11.20;;;;;;;2.07;100.00;95947.05;110252;1240;71424;-67
2023/11/24 06:56:50;;;;;;;16.10;10.60;;;;;;;2.10;100.00;95946.06;110224;1242;69430;-67
2023/11/24 06:59:20;;;;;;;13.60;9.60;;;;;;;2.16;100.00;95936.86;110243;1240;69294;-67
2023/11/24 07:01:50;;;;;;;14.40;10.10;;;;;;;2.23;100.00;95930.81;110254;1241;59741;-67
2023/11/24 07:04:20;;;;;;;18.30;11.50;;;;;;;2.25;100.00;95926.17;110239;1241;59688;-66
2023/11/24 07:06:49;;;;;;;14.70;9.60;;;;;;;2.27;100.00;95924.14;110235;1242;70343;-67
2023/11/24 07:09:19;;;;;;;11.70;8.40;;;;;;;2.30;100.00;95921.73;110229;1241;69421;-66
2023/11/24 07:11:50;;;;;;;12.40;8.60;;;;;;;2.33;100.00;95915.90;110206;1240;69226;-66
2023/11/24 07:14:19;;;;;;;14.80;8.50;;;;;;;2.37;100.00;95915.27;110199;1242;59721;-66
2023/11/24 07:16:48;;;;;;;12.10;7.60;;;;;;;2.39;100.00;95911.15;110271;1240;59671;-66
2023/11/24 07:19:20;;;;;;;10.00;7.40;;;;;;;2.43;100.00;95912.33;110123;1241;71872;-66
2023/11/24 07:21:49;;;;;;;9.90;7.30;;;;;;;2.45;100.00;95907.89;110216;1241;69679;-66
2023/11/24 07:24:18;;;;;;;10.30;7.30;;;;;;;2.45;100.00;95908.54;110229;1242;68204;-66
2023/11/24 07:26:48;;;;;;;10.80;7.30;;;;;;;2.48;100.00;95905.26;110219;1242;59772;-66
2023/11/24 07:29:21;;;;;;;10.30;6.30;;;;;;;2.49;100.00;95897.12;110243;1242;59685;-66
2023/11/24 07:31:51;;;;;;;9.80;7.00;;;;;;;2.52;100.00;95886.45;110102;1241;70801;-66
2023/11/24 07:34:21;;;;;;;9.30;6.00;;;;;;;2.53;100.00;95880.20;110240;1242;69121;-66
2023/11/24 07:36:53;;;;;;;11.00;6.80;;;;;;;2.53;100.00;95864.14;110240;1242;67889;-66
2023/11/24 07:39:23;;;;;;;9.60;6.40;;;;;;;2.54;100.00;95859.98;110194;1241;59745;-66
2023/11/24 07:41:54;;;;;;;10.10;6.60;;;;;;;2.56;100.00;95861.55;110210;1242;59662;-66
2023/11/24 07:44:23;;;;;;;10.10;6.50;;;;;;;2.59;100.00;95860.52;110224;1242;71986;-66
2023/11/24 07:46:52;;;;;;;10.40;6.20;;;;;;;2.61;100.00;95856.65;110251;1242;69661;-66
2023/11/24 07:49:22;;;;;;;10.20;6.50;;;;;;;2.61;100.00;95841.45;110214;1240;69610;-67
2023/11/24 07:51:53;;;;;;;10.10;6.50;;;;;;;2.63;100.00;95847.02;110210;1247;59769;-67
2023/11/24 07:54:23;;;;;;;9.70;6.30;;;;;;;2.64;100.00;95836.33;110204;1242;59997;-67
2023/11/24 07:56:52;;;;;;;10.10;6.00;;;;;;;2.66;100.00;95832.73;110208;1241;71160;-67
2023/11/24 07:59:23;;;;;;;9.90;6.50;;;;;;;2.68;100.00;95823.80;110166;1240;69873;-67
2023/11/24 08:01:52;;;;;;;8.90;6.40;;;;;;;2.72;100.00;95830.77;110083;1244;69873;-67
2023/11/24 08:04:22;;;;;;;10.00;5.80;;;;;;;2.74;100.00;95832.55;110171;1241;59699;-67
2023/11/24 08:06:51;;;;;;;9.40;6.20;;;;;;;2.76;100.00;95836.52;110201;1242;59662;-67
2023/11/24 08:09:21;;;;;;;9.10;5.90;;;;;;;2.85;100.00;95835.95;110171;1242;72110;-67
2023/11/24 08:11:50;;;;;;;8.60;5.60;;;;;;;2.90;99.50;95828.38;110210;1242;68258;-67
2023/11/24 08:14:23;;;;;;;9.00;5.10;;;;;;;2.97;99.97;95825.81;110100;1240;69172;-67
2023/11/24 08:16:53;;;;;;;6.40;4.10;;;;;;;3.03;99.49;95828.83;110184;1242;59744;-66
2023/11/24 08:19:25;;;;;;;10.90;5.70;;;;;;;3.10;99.29;95833.94;110246;1241;59703;-67
2023/11/24 08:21:55;;;;;;;6.30;4.90;;;;;;;3.12;98.64;95834.45;110126;1243;72002;-67
2023/11/24 08:24:25;;;;;;;6.50;4.70;;;;;;;3.18;99.05;95834.40;110243;1242;69310;-67
2023/11/24 08:26:54;;;;;;;7.90;5.30;;;;;;;3.24;98.68;95834.99;110269;1241;69273;-67
2023/11/24 08:29:26;;;;;;;8.80;6.20;;;;;;;3.28;97.08;95848.30;110248;1241;59661;-67
2023/11/24 08:31:57;;;;;;;9.70;5.70;;;;;;;3.35;97.24;95843.86;110344;1242;59599;-66
2023/11/24 08:34:27;;;;;;;8.50;5.00;;;;;;;3.44;96.64;95842.55;110264;1240;70523;-67
2023/11/24 08:37:00;;;;;;;10.50;5.80;;;;;;;3.55;96.81;95835.59;110273;1242;69326;-67
2023/11/24 08:39:30;;;;;;;7.00;5.50;;;;;;;3.65;97.21;95837.69;110222;1242;67336;-67
2023/11/24 08:41:59;;;;;;;7.00;5.00;;;;;;;3.71;96.05;95837.08;110236;1242;59738;-66
2023/11/24 08:44:28;;;;;;;7.80;5.70;;;;;;;3.82;96.52;95841.13;110082;1241;59764;-66
2023/11/24 08:46:58;;;;;;;7.50;5.10;;;;;;;3.92;96.11;95838.32;110218;1242;71419;-66
2023/11/24 08:49:28;;;;;;;8.60;5.50;;;;;;;4.00;94.88;95832.23;110224;1242;69261;-67
2023/11/24 08:51:58;;;;;;;7.60;5.40;;;;;;;4.03;93.49;95815.98;110238;1242;69446;-67
2023/11/24 08:54:27;;;;;;;9.80;6.30;;;;;;;4.12;94.46;95809.02;110250;1241;59737;-66
2023/11/24 08:56:57;;;;;;;11.40;6.60;;;;;;;4.20;94.05;95809.96;110254;1242;59662;-68
2023/11/24 08:59:26;;;;;;;8.60;5.00;;;;;;;4.24;93.82;95805.39;110174;1241;71448;-67
2023/11/24 09:01:56;;;;;;;9.70;5.50;;;;;;;4.27;92.57;95805.33;110153;1240;68559;-67
2023/11/24 09:04:30;;;;;;;8.10;6.10;;;;;;;4.33;93.86;95792.45;110248;1242;69387;-67
2023/11/24 09:07:00;;;;;;;11.40;6.20;;;;;;;4.35;93.08;95773.86;110219;1242;59637;-67
2023/11/24 09:09:33;;;;;;;10.90;6.60;;;;;;;4.37;93.14;95758.66;110231;1242;59632;-67
2023/11/24 09:12:03;;;;;;;10.50;7.00;;;;;;;4.41;92.64;95757.00;110286;1242;71351;-67
2023/11/24 09:14:38;;;;;;;9.20;6.40;;;;;;;4.38;91.90;95747.59;110241;1242;69314;-67
2023/11/24 09:17:08;;;;;;;10.00;6.80;;;;;;;4.33;92.26;95757.74;110225;1242;69875;-67
2023/11/24 09:19:40;;;;;;;8.70;6.10;;;;;;;4.40;92.75;95739.00;110245;1240;59763;-67
2023/11/24 09:22:10;;;;;;;12.00;7.20;;;;;;;4.43;92.86;95742.02;110291;1242;59701;-67
2023/11/24 09:24:39;;;;;;;9.00;6.30;;;;;;;4.50;93.04;95730.66;110271;1247;70693;-67
2023/11/24 09:27:09;;;;;;;9.30;6.50;;;;;;;4.59;92.76;95731.01;110261;1242;69073;-67
2023/11/24 09:29:38;;;;;;;9.90;6.30;;;;;;;4.68;92.45;95713.41;110070;1240;69632;-67
2023/11/24 09:32:07;;;;;;;8.90;6.20;;;;;;;4.74;92.21;95716.02;110216;1242;59660;-67
2023/11/24 09:34:37;;;;;;;10.40;7.50;;;;;;;4.88;92.78;95709.13;110226;1242;59621;-67
2023/11/24 09:37:07;;;;;;;10.90;7.00;;;;;;;5.06;92.44;95701.81;110221;1241;71677;-66
2023/11/24 09:39:37;;;;;;;10.10;7.50;;;;;;;5.28;92.72;95706.52;110212;1242;70213;-67
2023/11/24 09:42:11;;;;;;;10.50;6.60;;;;;;;5.48;91.04;95702.18;110222;1240;69829;-67
2023/11/24 09:44:46;;;;;;;10.50;7.30;;;;;;;5.62;89.38;95702.77;110218;1241;59738;-67
2023/11/24 09:47:17;;;;;;;10.00;6.90;;;;;;;5.80;90.22;95698.20;110234;1241;59741;-67
2023/11/24 09:49:49;;;;;;;12.10;7.10;;;;;;;5.91;89.27;95699.60;110232;1242;72315;-67
2023/11/24 09:52:22;;;;;;;10.80;7.00;;;;;;;5.96;88.95;95684.88;110243;1242;69424;-67
2023/11/24 09:54:58;;;;;;;9.70;7.30;;;;;;;6.00;88.25;95684.48;110208;1242;67706;-67
2023/11/24 09:57:28;;;;;;;12.10;7.50;;;;;;;6.05;88.31;95669.56;110124;1244;60150;-67
2023/11/24 09:59:58;;;;;;;10.50;7.40;;;;;;;6.08;87.34;95656.85;110203;1241;59737;-67
2023/11/24 10:02:28;;;;;;;9.20;7.00;;;;;;;6.10;86.91;95649.27;110237;1242;71783;-66
2023/11/24 10:04:58;;;;;;;9.30;6.80;;;;;;;6.15;87.88;95646.78;110209;1242;69339;-67
2023/11/24 10:07:29;;;;;;;9.20;6.20;;;;;;;6.21;87.94;95639.70;110204;1240;69345;-66
2023/11/24 10:09:58;;;;;;;12.20;7.50;;;;;;;6.27;87.24;95621.73;110267;1241;59702;-67
2023/11/24 10:12:30;;;;;;;12.90;8.60;;;;;;;6.25;86.82;95621.73;110179;1242;59678;-66
2023/11/24 10:15:00;;;;;;;10.70;7.20;;;;;;;6.19;86.48;95621.41;110115;1243;70840;-67
2023/11/24 10:17:33;;;;;;;10.00;7.80;;;;;;;6.16;86.89;95620.77;110209;1243;69110;-66
2023/11/24 10:20:11;;;;;;;10.70;7.70;;;;;;;6.13;86.94;95616.48;110211;1242;69869;-66
2023/11/24 10:22:40;;;;;;;14.20;7.90;;;;;;;6.09;87.38;95613.58;110104;1241;59707;-66
2023/11/24 10:25:11;;;;;;;11.10;7.90;;;;;;;6.01;87.70;95615.08;110195;1241;59747;-66
2023/11/24 10:27:40;;;;;;;12.50;7.80;;;;;;;5.91;88.27;95621.13;110208;1241;71979;-66
2023/11/24 10:30:12;;;;;;;11.10;7.90;;;;;;;5.81;88.14;95614.46;110219;1240;69169;-66
2023/11/24 10:32:43;;;;;;;13.10;7.30;;;;;;;5.78;88.38;95614.02;110184;1242;69274;-66
2023/11/24 10:35:13;;;;;;;12.20;7.60;;;;;;;5.76;88.92;95609.53;110241;1242;59734;-67
2023/11/24 10:37:44;;;;;;;12.70;7.50;;;;;;;5.77;89.53;95616.73;110217;1242;59676;-66
2023/11/24 10:40:17;;;;;;;12.20;7.50;;;;;;;5.83;89.62;95615.87;110198;1242;71393;-67
2023/11/24 10:42:50;;;;;;;12.70;8.10;;;;;;;5.83;89.57;95619.46;110046;1244;69176;-67
2023/11/24 10:45:21;;;;;;;10.50;7.50;;;;;;;5.78;89.94;95608.87;110185;1241;69776;-67
2023/11/24 10:48:17;;;;;;;11.80;7.60;;;;;;;5.75;90.74;95602.55;110197;1242;59692;-67
2023/11/24 10:51:08;;;;;;;12.80;7.40;;;;;;;5.70;91.31;95595.00;110228;1241;59769;-67
2023/11/24 10:53:49;;;;;;;12.20;7.40;;;;;;;5.65;92.00;95611.09;110222;1242;71436;-67
2023/11/24 10:56:21;;;;;;;11.50;7.60;;;;;;;5.66;91.87;95595.36;110237;1242;69902;-67
2023/11/24 10:58:52;;;;;;;11.00;7.00;;;;;;;5.58;92.43;95606.65;109609;1244;682267;-66
2023/11/24 11:01:22;;;;;;;11.80;7.30;;;;;;;5.53;92.99;95606.42;110216;1242;59708;-67
2023/11/24 11:03:58;;;;;;;11.00;6.80;;;;;;;5.54;93.16;95606.48;110222;1242;59695;-66
2023/11/24 11:06:31;;;;;;;11.50;7.90;;;;;;;5.47;93.94;95604.48;110250;1240;70595;-66
2023/11/24 11:11:52;;;;;;;11.00;6.80;;;;;;;5.46;94.27;95598.64;110216;1242;68184;-66
2023/11/24 11:14:21;;;;;;;10.20;6.90;;;;;;;5.42;94.92;95608.80;110193;1242;59671;-66
2023/11/24 11:16:52;;;;;;;11.40;6.90;;;;;;;5.46;94.61;95605.89;110270;1241;59728;-66
2023/11/24 11:19:33;;;;;;;10.80;7.00;;;;;;;5.49;94.85;95602.67;110171;1242;70639;-66
2023/11/24 11:22:07;;;;;;;11.10;7.70;;;;;;;5.60;95.30;95604.56;110229;1242;69837;-66
2023/11/24 11:24:36;;;;;;;8.70;7.00;;;;;;;5.56;96.25;95601.46;110179;1242;68282;-67
2023/11/24 11:27:22;;;;;;;12.30;7.20;;;;;;;5.47;96.73;95599.80;110178;1242;59731;-66
2023/11/24 11:29:53;;;;;;;11.30;7.60;;;;;;;5.44;97.09;95592.92;110253;1241;59740;-66
2023/11/24 11:32:22;;;;;;;10.80;7.60;;;;;;;5.56;96.81;95592.99;110231;1242;71396;-66
2023/11/24 11:34:54;;;;;;;8.80;6.50;;;;;;;5.54;96.38;95598.13;110255;1242;69236;-67
2023/11/24 11:37:28;;;;;;;8.90;6.50;;;;;;;5.47;96.74;95600.66;110083;1244;68498;-66
2023/11/24 11:40:11;;;;;;;8.20;6.10;;;;;;;5.34;95.95;95595.66;110250;1241;59647;-66
2023/11/24 11:42:58;;;;;;;9.30;5.80;;;;;;;5.35;96.18;95591.56;110210;1242;59643;-67
2023/11/24 11:45:31;;;;;;;8.90;6.50;;;;;;;5.38;96.14;95584.80;110186;1240;70457;-67